Time;durP1;ratioP1;P1;durP2;ratioP2;P2;SDS_P1;SDS_P2;PMS_P1;PMS_P2;Temp;Humidity;BMP_temperature;BMP_pressure;BME280_temperature;BME280_humidity;BME280_pressure;Samples;Min_cycle;Max_cycle;Signal;HPM_P1;HPM_P2
2023/05/28 00:02:45;;;;;;;11.77;3.65;;;;;;;19.51;41.80;100135.81;4972944;28;20046;-86
2023/05/28 00:05:12;;;;;;;11.35;4.20;;;;;;;19.51;41.86;100131.28;4967552;28;20044;-86
2023/05/28 00:07:41;;;;;;;16.50;4.70;;;;;;;19.48;41.91;100134.31;4980422;28;20052;-87
2023/05/28 00:10:08;;;;;;;8.90;3.47;;;;;;;19.43;41.87;100125.13;4949765;28;20045;-86
2023/05/28 00:12:39;;;;;;;9.90;4.13;;;;;;;19.39;41.98;100126.53;4959947;28;20057;-87
2023/05/28 00:15:07;;;;;;;11.10;3.80;;;;;;;19.38;42.07;100120.31;4948003;28;20054;-88
2023/05/28 00:17:34;;;;;;;10.23;3.90;;;;;;;19.40;41.99;100125.50;4970686;28;20061;-88
2023/05/28 00:20:01;;;;;;;12.57;4.40;;;;;;;19.40;42.20;100131.72;4969146;28;20591;-88
2023/05/28 00:22:29;;;;;;;12.68;4.55;;;;;;;19.35;42.18;100128.75;4939420;28;20121;-88
2023/05/28 00:24:56;;;;;;;10.35;4.35;;;;;;;19.35;42.14;100127.94;4915878;28;20036;-89
2023/05/28 00:27:26;;;;;;;8.60;4.05;;;;;;;19.33;42.20;100128.09;4954322;28;20246;-89
2023/05/28 00:29:53;;;;;;;11.43;4.28;;;;;;;19.30;42.45;100132.00;4935433;28;20059;-87
2023/05/28 00:32:20;;;;;;;8.95;4.20;;;;;;;19.30;42.27;100123.91;4954915;28;20051;-88
2023/05/28 00:34:51;;;;;;;12.07;3.95;;;;;;;19.27;42.49;100123.47;4954936;28;20051;-88
2023/05/28 00:37:18;;;;;;;7.68;3.70;;;;;;;19.23;42.56;100122.16;4927305;28;20553;-88
2023/05/28 00:39:49;;;;;;;10.43;4.28;;;;;;;19.21;42.53;100121.50;4915749;28;20127;-88
2023/05/28 00:42:20;;;;;;;11.82;4.18;;;;;;;19.17;42.62;100122.91;4936688;28;20051;-88
2023/05/28 00:44:47;;;;;;;9.35;4.07;;;;;;;19.18;42.69;100117.31;4938501;28;20051;-86
2023/05/28 00:47:14;;;;;;;8.80;4.40;;;;;;;19.14;43.15;100110.66;4946772;28;20425;-88
2023/05/28 00:49:43;;;;;;;13.13;4.15;;;;;;;19.16;43.09;100111.31;4971397;28;20133;-86
2023/05/28 00:52:10;;;;;;;11.10;4.50;;;;;;;19.20;42.82;100122.53;4964421;28;20061;-88
2023/05/28 00:54:38;;;;;;;12.27;5.05;;;;;;;19.17;42.80;100114.84;4973778;28;20457;-88
2023/05/28 00:57:05;;;;;;;10.43;4.45;;;;;;;19.05;42.85;100126.03;4967046;28;21144;-86
2023/05/28 00:59:34;;;;;;;9.23;4.50;;;;;;;19.07;42.65;100110.53;4951547;28;20434;-87
2023/05/28 01:02:01;;;;;;;10.80;5.00;;;;;;;19.10;43.20;100120.09;4957235;28;20573;-88
2023/05/28 01:04:31;;;;;;;11.45;4.85;;;;;;;19.10;43.62;100125.50;4942674;28;20051;-87
2023/05/28 01:06:58;;;;;;;11.43;4.82;;;;;;;19.06;43.24;100125.03;4946093;28;20054;-88
2023/05/28 01:09:25;;;;;;;7.28;4.20;;;;;;;19.07;43.27;100120.47;4926787;28;20055;-87
2023/05/28 01:11:52;;;;;;;12.43;5.10;;;;;;;19.09;43.37;100126.53;4930448;28;20540;-88
2023/05/28 01:14:20;;;;;;;12.75;4.57;;;;;;;19.06;43.34;100116.97;4941072;28;20101;-88
2023/05/28 01:16:48;;;;;;;11.15;4.68;;;;;;;19.08;43.25;100125.69;4927189;28;20387;-87
2023/05/28 01:19:18;;;;;;;12.82;4.90;;;;;;;19.08;42.99;100114.06;4961310;28;20043;-88
2023/05/28 01:21:47;;;;;;;12.48;4.30;;;;;;;18.98;42.90;100118.88;4944931;28;20047;-88
2023/05/28 01:24:14;;;;;;;12.10;4.70;;;;;;;18.99;43.09;100113.31;4939847;28;20051;-87
2023/05/28 01:26:43;;;;;;;13.32;4.57;;;;;;;18.97;43.26;100111.84;4933817;28;20109;-87
2023/05/28 01:29:17;;;;;;;11.23;4.07;;;;;;;18.90;43.09;100106.34;4934284;28;20134;-88
2023/05/28 01:31:45;;;;;;;8.90;4.47;;;;;;;18.90;43.21;100116.28;4952299;28;20058;-89
2023/05/28 01:34:19;;;;;;;12.15;4.45;;;;;;;18.82;43.22;100114.50;4930179;28;20314;-88
2023/05/28 01:36:54;;;;;;;9.93;4.18;;;;;;;18.81;43.61;100116.34;4919235;28;20233;-88
2023/05/28 01:39:24;;;;;;;11.13;5.25;;;;;;;18.84;43.20;100099.00;4926467;28;20614;-87
2023/05/28 01:41:52;;;;;;;10.10;4.15;;;;;;;18.78;43.30;100110.53;4936486;28;20477;-88
2023/05/28 01:44:23;;;;;;;10.90;4.53;;;;;;;18.79;43.43;100110.31;4952515;28;20076;-87
2023/05/28 01:46:52;;;;;;;10.38;4.60;;;;;;;18.76;43.40;100105.31;4961232;28;20489;-88
2023/05/28 01:49:21;;;;;;;10.45;4.13;;;;;;;18.76;43.89;100110.69;4962479;28;20133;-88
2023/05/28 01:51:55;;;;;;;8.88;3.88;;;;;;;18.74;43.84;100107.31;4962525;28;20165;-88
2023/05/28 01:54:22;;;;;;;8.48;4.85;;;;;;;18.78;43.53;100108.66;4934447;28;20047;-89
2023/05/28 01:56:49;;;;;;;9.02;4.70;;;;;;;18.70;43.24;100103.31;4937387;28;20042;-87
2023/05/28 01:59:16;;;;;;;10.98;4.15;;;;;;;18.72;43.52;100095.06;4964066;28;20050;-88
2023/05/28 02:01:44;;;;;;;9.93;4.18;;;;;;;18.72;43.20;100105.81;4970805;28;20080;-88
2023/05/28 02:04:13;;;;;;;10.88;4.32;;;;;;;18.67;43.63;100092.91;4936750;28;20047;-86
2023/05/28 02:06:45;;;;;;;9.75;4.50;;;;;;;18.62;44.21;100096.16;4951489;28;20058;-88
2023/05/28 02:09:12;;;;;;;9.25;3.90;;;;;;;18.68;43.89;100105.34;4958631;28;20053;-87
2023/05/28 02:11:42;;;;;;;8.18;3.70;;;;;;;18.68;43.77;100101.84;4954507;28;20441;-87
2023/05/28 02:14:13;;;;;;;11.52;4.40;;;;;;;18.65;44.02;100095.78;4949091;28;20046;-87
2023/05/28 02:16:52;;;;;;;8.25;4.28;;;;;;;18.61;44.45;100102.53;4948400;28;20057;-88
2023/05/28 02:19:19;;;;;;;11.73;4.47;;;;;;;18.64;43.76;100091.41;4925913;28;20070;-88
2023/05/28 02:21:47;;;;;;;10.43;4.28;;;;;;;18.64;43.61;100090.59;4937103;28;20649;-88
2023/05/28 02:24:14;;;;;;;13.68;4.68;;;;;;;18.67;44.13;100092.91;4936242;28;20055;-86
2023/05/28 02:26:41;;;;;;;9.55;4.30;;;;;;;18.62;43.91;100098.84;4947929;28;20074;-86
2023/05/28 02:29:08;;;;;;;8.13;4.32;;;;;;;18.60;44.67;100092.00;4958952;28;20049;-87
2023/05/28 02:31:35;;;;;;;8.45;4.05;;;;;;;18.57;44.86;100093.19;4976913;28;20089;-87
2023/05/28 02:34:02;;;;;;;9.30;4.40;;;;;;;18.58;44.86;100086.78;4951893;28;20058;-88
2023/05/28 02:36:29;;;;;;;7.90;4.40;;;;;;;18.51;44.89;100087.69;4932241;28;20595;-89
2023/05/28 02:39:01;;;;;;;12.23;4.53;;;;;;;18.46;45.15;100072.09;4978387;28;20077;-89
2023/05/28 02:41:30;;;;;;;8.60;4.28;;;;;;;18.47;44.83;100089.91;4962942;28;20473;-88
2023/05/28 02:43:59;;;;;;;9.48;4.10;;;;;;;18.46;44.33;100085.53;4958684;28;20078;-87
2023/05/28 02:46:26;;;;;;;10.70;4.35;;;;;;;18.45;44.54;100094.63;4961650;28;20046;-88
2023/05/28 02:48:53;;;;;;;9.48;4.03;;;;;;;18.43;44.66;100089.41;4961295;28;20067;-88
2023/05/28 02:51:24;;;;;;;10.93;4.63;;;;;;;18.43;44.51;100084.03;4955213;28;20465;-88
2023/05/28 02:54:02;;;;;;;9.82;4.05;;;;;;;18.41;44.92;100087.94;4928165;28;20051;-88
2023/05/28 02:56:33;;;;;;;12.10;4.53;;;;;;;18.36;45.16;100091.16;4962699;28;20722;-87
2023/05/28 02:59:00;;;;;;;7.57;3.72;;;;;;;18.31;45.38;100092.72;4944237;28;20072;-88
2023/05/28 03:01:27;;;;;;;9.15;4.00;;;;;;;18.33;45.45;100091.50;4983195;28;20129;-88
2023/05/28 03:03:55;;;;;;;7.43;3.97;;;;;;;18.29;45.65;100086.66;4945963;28;20050;-89
2023/05/28 03:06:22;;;;;;;11.13;4.45;;;;;;;18.28;45.44;100088.53;4952560;28;20051;-87
2023/05/28 03:08:52;;;;;;;12.38;4.20;;;;;;;18.21;45.56;100085.72;4931188;28;20053;-88
2023/05/28 03:11:33;;;;;;;13.15;4.20;;;;;;;18.16;45.68;100088.09;4958333;28;20107;-88
2023/05/28 03:14:00;;;;;;;11.18;3.72;;;;;;;18.18;45.92;100098.69;4947009;28;20046;-88
2023/05/28 03:16:27;;;;;;;7.75;4.25;;;;;;;18.14;45.98;100092.84;4927229;28;20121;-88
2023/05/28 03:18:54;;;;;;;12.77;4.95;;;;;;;18.12;46.08;100092.19;4935755;28;20059;-87
2023/05/28 03:21:23;;;;;;;12.77;4.72;;;;;;;18.10;46.16;100098.75;4930124;28;20121;-87
2023/05/28 03:23:50;;;;;;;8.63;4.38;;;;;;;18.05;46.25;100091.22;4951007;28;20043;-88
2023/05/28 03:26:28;;;;;;;8.32;4.07;;;;;;;17.98;46.35;100090.25;4941204;28;20066;-88
2023/05/28 03:28:56;;;;;;;10.93;4.65;;;;;;;17.98;46.52;100096.44;4941354;28;20117;-87
2023/05/28 03:31:45;;;;;;;14.57;4.85;;;;;;;17.90;46.90;100079.56;4943437;28;20129;-88
2023/05/28 03:34:26;;;;;;;13.55;4.57;;;;;;;17.91;46.63;100083.91;4937396;28;20105;-88
2023/05/28 03:36:53;;;;;;;7.68;4.32;;;;;;;17.95;46.39;100086.06;4930492;28;20053;-88
2023/05/28 03:39:30;;;;;;;10.48;4.38;;;;;;;17.95;46.41;100078.00;4942589;28;20059;-89
2023/05/28 03:42:01;;;;;;;8.75;4.28;;;;;;;17.92;46.41;100086.44;4948578;28;20054;-88
2023/05/28 03:44:30;;;;;;;12.35;4.35;;;;;;;17.92;46.48;100083.75;4953234;28;20055;-88
2023/05/28 03:46:57;;;;;;;12.73;4.32;;;;;;;17.91;46.77;100091.97;4930253;28;20094;-88
2023/05/28 03:49:24;;;;;;;11.95;4.57;;;;;;;17.86;47.09;100083.59;4940043;28;20057;-88
2023/05/28 03:51:53;;;;;;;13.02;4.65;;;;;;;17.91;47.66;100091.97;4942255;28;20050;-88
2023/05/28 03:54:22;;;;;;;11.82;4.88;;;;;;;18.14;47.91;100092.84;4958503;28;20074;-88
2023/05/28 03:56:49;;;;;;;13.60;4.97;;;;;;;18.66;47.96;100075.09;4963661;28;20574;-88
2023/05/28 03:59:19;;;;;;;11.00;4.35;;;;;;;19.34;46.96;100075.09;4942122;28;20058;-88
2023/05/28 04:01:47;;;;;;;11.02;4.70;;;;;;;19.95;45.66;100076.50;4951556;28;20063;-88
2023/05/28 04:04:15;;;;;;;8.73;4.10;;;;;;;20.42;44.38;100074.25;4920190;28;20055;-88
2023/05/28 04:06:42;;;;;;;8.57;4.30;;;;;;;20.91;43.36;100070.69;4956301;28;20058;-87
2023/05/28 04:09:09;;;;;;;10.15;4.85;;;;;;;21.27;42.30;100071.53;4924378;28;20058;-88
2023/05/28 04:11:37;;;;;;;11.77;5.13;;;;;;;21.49;41.17;100077.72;4937646;28;20051;-89
2023/05/28 04:14:04;;;;;;;12.45;4.90;;;;;;;21.40;40.85;100079.78;4954195;28;20058;-88
2023/05/28 04:16:31;;;;;;;8.65;4.43;;;;;;;21.14;40.65;100080.41;4924356;28;20057;-88
2023/05/28 04:19:01;;;;;;;12.10;5.03;;;;;;;20.90;40.34;100082.53;4930083;28;20062;-88
2023/05/28 04:21:29;;;;;;;13.68;4.63;;;;;;;20.70;40.79;100081.56;4957198;28;20071;-88
2023/05/28 04:23:56;;;;;;;10.50;4.63;;;;;;;20.45;41.73;100087.34;4930614;28;20053;-88
2023/05/28 04:26:23;;;;;;;9.07;4.40;;;;;;;20.28;41.63;100085.97;4953732;28;20077;-88
2023/05/28 04:28:54;;;;;;;12.00;4.90;;;;;;;20.15;41.82;100079.41;4927573;28;20401;-87
2023/05/28 04:31:26;;;;;;;10.50;4.53;;;;;;;20.07;42.55;100087.59;4939506;28;20121;-87
2023/05/28 04:33:54;;;;;;;11.60;4.63;;;;;;;19.98;42.60;100085.22;4944405;28;20050;-86
2023/05/28 04:36:20;;;;;;;13.30;4.63;;;;;;;19.92;41.78;100087.66;4910121;28;20057;-88
2023/05/28 04:38:49;;;;;;;10.93;4.35;;;;;;;19.86;42.51;100083.00;4929757;28;20078;-88
2023/05/28 04:41:19;;;;;;;11.80;4.47;;;;;;;19.72;41.96;100079.34;4905473;28;20050;-89
2023/05/28 04:43:45;;;;;;;11.75;4.97;;;;;;;19.69;42.05;100087.81;4938414;28;20490;-87
2023/05/28 04:46:13;;;;;;;14.00;4.97;;;;;;;19.61;42.31;100095.94;4928574;28;20121;-88
2023/05/28 04:48:41;;;;;;;10.57;5.25;;;;;;;19.51;41.81;100085.50;4962149;28;20050;-88
2023/05/28 04:51:08;;;;;;;10.57;4.38;;;;;;;19.45;42.36;100085.38;4948393;28;20038;-89
2023/05/28 04:53:36;;;;;;;9.80;4.95;;;;;;;19.39;42.61;100092.38;4960010;28;20269;-88
2023/05/28 04:56:05;;;;;;;9.40;4.70;;;;;;;19.37;42.80;100091.72;4989220;28;20065;-88
2023/05/28 04:58:32;;;;;;;10.98;4.93;;;;;;;19.32;42.67;100090.59;4969068;28;20046;-89
2023/05/28 05:01:04;;;;;;;11.85;4.93;;;;;;;19.28;42.79;100104.44;4928086;28;21524;-88
2023/05/28 05:03:32;;;;;;;10.27;4.60;;;;;;;19.22;42.64;100101.66;4934653;28;20047;-88
2023/05/28 05:06:00;;;;;;;12.65;4.25;;;;;;;19.11;42.76;100094.88;4938162;28;20051;-87
2023/05/28 05:08:27;;;;;;;10.35;4.70;;;;;;;19.07;42.67;100097.09;4926243;28;20046;-89
2023/05/28 05:10:54;;;;;;;13.32;4.70;;;;;;;19.04;43.13;100100.16;4927560;28;20125;-89
2023/05/28 05:13:21;;;;;;;11.73;4.55;;;;;;;19.02;42.75;100106.75;4954738;28;20050;-88
2023/05/28 05:15:48;;;;;;;12.52;5.55;;;;;;;18.95;43.13;100101.25;4929311;28;20055;-88
2023/05/28 05:18:15;;;;;;;13.55;5.22;;;;;;;19.00;42.93;100100.69;4943298;28;20376;-88
2023/05/28 05:20:42;;;;;;;11.35;4.35;;;;;;;18.94;42.87;100096.91;4929488;28;20050;-87
2023/05/28 05:23:11;;;;;;;12.50;4.32;;;;;;;18.92;43.18;100109.69;4932291;28;20043;-88
2023/05/28 05:25:47;;;;;;;14.00;5.22;;;;;;;18.95;43.04;100109.31;4945644;28;20101;-87
2023/05/28 05:28:14;;;;;;;13.15;4.80;;;;;;;18.90;43.23;100116.28;4947632;28;20047;-88
2023/05/28 05:30:43;;;;;;;19.38;6.25;;;;;;;18.86;43.38;100115.81;4931861;28;20121;-88
2023/05/28 05:33:12;;;;;;;13.45;5.07;;;;;;;18.86;43.59;100113.13;4947637;28;20057;-87
2023/05/28 05:36:02;;;;;;;13.70;5.13;;;;;;;18.85;43.24;100116.81;4942395;28;20560;-87
2023/05/28 05:39:01;;;;;;;14.80;4.97;;;;;;;18.80;43.31;100114.69;4938039;28;20154;-88
2023/05/28 05:42:08;;;;;;;12.13;4.60;;;;;;;18.80;43.55;100122.78;4951358;28;20039;-88
2023/05/28 05:44:42;;;;;;;13.57;4.97;;;;;;;18.82;43.70;100123.41;4941427;28;20062;-87
2023/05/28 05:47:09;;;;;;;15.05;4.72;;;;;;;18.83;43.76;100121.56;4920098;28;20126;-88
2023/05/28 05:49:38;;;;;;;12.20;4.82;;;;;;;18.86;44.16;100121.19;4946456;28;20078;-88
2023/05/28 05:52:05;;;;;;;12.98;4.97;;;;;;;18.91;44.09;100116.09;4928352;28;20529;-89
2023/05/28 05:54:40;;;;;;;15.00;4.72;;;;;;;18.92;43.88;100114.25;4916051;28;20047;-87
2023/05/28 05:57:08;;;;;;;11.95;4.70;;;;;;;18.89;44.07;100115.44;4949664;28;20051;-87
2023/05/28 05:59:35;;;;;;;15.35;5.63;;;;;;;18.89;43.93;100122.69;4945737;28;20051;-88
2023/05/28 06:02:06;;;;;;;8.45;4.90;;;;;;;18.85;43.61;100131.13;4959142;28;20054;-88
2023/05/28 06:04:33;;;;;;;10.57;4.40;;;;;;;18.81;43.60;100127.13;4968475;28;20457;-88
2023/05/28 06:07:19;;;;;;;13.20;5.18;;;;;;;18.82;43.91;100125.25;4964787;28;20132;-87
2023/05/28 06:09:57;;;;;;;14.68;5.30;;;;;;;18.89;44.10;100125.38;4959941;28;20108;-88
2023/05/28 06:12:29;;;;;;;14.73;4.97;;;;;;;18.90;43.78;100114.41;4964549;28;20137;-89
2023/05/28 06:15:00;;;;;;;14.82;4.70;;;;;;;18.90;43.98;100122.47;4959297;28;20043;-88
2023/05/28 06:17:30;;;;;;;10.15;5.50;;;;;;;18.86;44.11;100116.66;4954613;28;20050;-88
2023/05/28 06:20:04;;;;;;;13.15;5.20;;;;;;;18.87;44.22;100126.38;4953328;28;20047;-89
2023/05/28 06:22:31;;;;;;;13.93;5.50;;;;;;;18.87;44.31;100121.00;4961920;28;20054;-88
2023/05/28 06:25:00;;;;;;;10.32;5.07;;;;;;;18.86;44.12;100123.88;4965040;28;20208;-88
2023/05/28 06:27:31;;;;;;;12.65;4.95;;;;;;;18.87;44.14;100123.69;4935218;28;20161;-88
2023/05/28 06:29:59;;;;;;;10.77;4.80;;;;;;;18.87;44.20;100115.63;4946039;28;20047;-89
2023/05/28 06:32:36;;;;;;;15.10;4.65;;;;;;;18.90;44.37;100105.50;4945929;28;20062;-88
2023/05/28 06:35:04;;;;;;;12.52;5.30;;;;;;;18.86;44.71;100107.75;4932188;28;20050;-88
2023/05/28 06:37:31;;;;;;;11.10;5.43;;;;;;;18.86;45.08;100115.81;4914901;28;20465;-89
2023/05/28 06:39:58;;;;;;;13.45;5.82;;;;;;;18.81;45.19;100112.84;4948338;28;20097;-89
2023/05/28 06:42:26;;;;;;;21.45;6.13;;;;;;;18.86;44.80;100116.66;4937749;28;20070;-89
2023/05/28 06:45:18;;;;;;;12.38;5.03;;;;;;;18.85;44.81;100108.75;4937875;28;20063;-90
2023/05/28 06:47:46;;;;;;;14.93;5.53;;;;;;;18.87;45.52;100107.53;4938020;28;20382;-89
2023/05/28 06:50:15;;;;;;;13.95;5.82;;;;;;;18.91;45.17;100099.97;4967755;28;20055;-90
2023/05/28 06:52:42;;;;;;;11.20;5.18;;;;;;;18.91;45.87;100105.34;4948608;28;20516;-89
2023/05/28 06:55:11;;;;;;;14.05;5.28;;;;;;;18.91;45.28;100097.28;4927363;28;20042;-89
2023/05/28 06:57:52;;;;;;;14.13;5.50;;;;;;;19.00;45.24;100106.09;4935115;28;20051;-88
2023/05/28 07:00:48;;;;;;;12.85;5.38;;;;;;;18.92;45.82;100092.72;4945054;28;20059;-88
2023/05/28 07:03:35;;;;;;;12.73;5.13;;;;;;;18.95;45.62;100098.56;4950649;28;20054;-89
2023/05/28 07:06:14;;;;;;;11.55;5.20;;;;;;;18.95;45.48;100098.56;4951944;28;20604;-88
2023/05/28 07:08:44;;;;;;;9.45;4.78;;;;;;;18.93;46.07;100099.75;4919725;28;20073;-89
2023/05/28 07:11:12;;;;;;;15.15;5.18;;;;;;;18.99;45.89;100099.03;4938366;28;20066;-88
2023/05/28 07:13:43;;;;;;;13.27;4.97;;;;;;;19.00;45.63;100100.69;4920204;28;20107;-88
2023/05/28 07:16:11;;;;;;;11.95;6.30;;;;;;;19.07;45.96;100110.53;4978199;28;20071;-89
2023/05/28 07:18:38;;;;;;;13.73;5.10;;;;;;;19.08;45.88;100096.09;4958340;28;20050;-91
2023/05/28 07:21:08;;;;;;;13.73;5.40;;;;;;;19.13;45.30;100100.06;4969353;28;20053;-87
2023/05/28 07:23:40;;;;;;;12.68;5.13;;;;;;;19.11;45.35;100094.88;4958124;28;20062;-88
2023/05/28 07:26:07;;;;;;;11.48;5.20;;;;;;;19.13;45.56;100100.88;4966950;28;20054;-89
2023/05/28 07:28:34;;;;;;;13.05;6.30;;;;;;;19.15;45.92;100100.72;4948898;28;20144;-89
2023/05/28 07:31:01;;;;;;;15.27;6.20;;;;;;;19.16;45.45;100103.22;4989685;28;20066;-88
2023/05/28 07:33:29;;;;;;;14.00;5.40;;;;;;;19.19;45.61;100102.84;4978021;28;20449;-89
2023/05/28 07:35:56;;;;;;;14.70;5.65;;;;;;;19.25;45.34;100096.72;4935356;28;20485;-88
2023/05/28 07:38:24;;;;;;;13.90;5.85;;;;;;;19.29;45.27;100100.72;4973893;28;20183;-88
2023/05/28 07:40:54;;;;;;;10.52;5.18;;;;;;;19.33;45.71;100100.34;4951404;28;20064;-88
2023/05/28 07:43:33;;;;;;;11.90;5.88;;;;;;;19.36;45.72;100108.03;4957906;28;20081;-90
2023/05/28 07:46:05;;;;;;;15.63;5.57;;;;;;;19.36;45.54;100102.66;4977423;28;20425;-90
2023/05/28 07:48:43;;;;;;;10.57;5.03;;;;;;;19.37;45.82;100107.88;4930697;28;20061;-89
2023/05/28 07:51:26;;;;;;;15.25;5.63;;;;;;;19.44;46.47;100103.41;4945525;28;20133;-90
2023/05/28 07:54:22;;;;;;;10.93;5.45;;;;;;;19.43;45.63;100100.91;4941163;28;20046;-91
2023/05/28 07:56:49;;;;;;;13.32;5.40;;;;;;;19.45;45.67;100104.25;4952460;28;20065;-90
2023/05/28 07:59:23;;;;;;;13.32;5.50;;;;;;;19.49;45.78;100106.38;4917282;28;20513;-89
2023/05/28 08:01:54;;;;;;;11.80;5.35;;;;;;;19.47;46.03;100112.97;4936730;28;20054;-90
2023/05/28 08:04:22;;;;;;;12.27;5.60;;;;;;;19.46;46.81;100106.75;4951234;28;20046;-89
2023/05/28 08:07:00;;;;;;;15.48;5.60;;;;;;;19.48;46.63;100106.56;4904526;28;20130;-89
2023/05/28 08:09:28;;;;;;;15.57;4.72;;;;;;;19.51;46.66;100106.19;4949170;28;20042;-88
2023/05/28 08:12:01;;;;;;;9.68;5.22;;;;;;;19.60;46.17;100107.75;4860316;28;20063;-89
2023/05/28 08:14:42;;;;;;;13.13;5.20;;;;;;;19.59;46.36;100099.84;4922563;28;20102;-89
2023/05/28 08:17:10;;;;;;;17.13;5.57;;;;;;;19.63;46.11;100107.38;4952605;28;20167;-90
2023/05/28 08:19:50;;;;;;;20.88;5.90;;;;;;;19.60;46.10;100088.91;4915222;28;20489;-89
2023/05/28 08:22:42;;;;;;;16.80;5.43;;;;;;;19.58;45.88;100096.31;4905212;28;20390;-89
2023/05/28 08:25:10;;;;;;;12.23;4.63;;;;;;;19.60;46.21;100093.47;4889566;28;20133;-88
2023/05/28 08:27:40;;;;;;;12.60;5.47;;;;;;;19.62;46.23;100084.16;4938386;28;20149;-88
2023/05/28 08:30:09;;;;;;;14.43;5.18;;;;;;;19.65;46.34;100077.56;4972866;28;20055;-87
2023/05/28 08:32:44;;;;;;;14.48;5.55;;;;;;;19.70;46.31;100081.38;4920125;28;20505;-88
2023/05/28 08:35:12;;;;;;;15.57;5.40;;;;;;;19.75;46.45;100074.59;4946018;28;20084;-87
2023/05/28 08:37:39;;;;;;;14.15;5.47;;;;;;;19.82;46.44;100079.06;4962626;28;20512;-88
2023/05/28 08:40:27;;;;;;;11.93;5.35;;;;;;;19.87;45.94;100078.44;4945115;28;20057;-88
2023/05/28 08:42:55;;;;;;;9.75;4.60;;;;;;;19.90;45.96;100072.72;4938327;28;20426;-88
2023/05/28 08:45:22;;;;;;;13.73;4.78;;;;;;;19.92;45.62;100070.63;4930927;28;20506;-89
2023/05/28 08:47:51;;;;;;;11.68;4.85;;;;;;;19.96;46.32;100071.94;4944438;28;24616;-87
2023/05/28 08:50:21;;;;;;;9.02;4.75;;;;;;;19.99;46.22;100068.03;4939842;28;20050;-89
2023/05/28 08:53:07;;;;;;;10.90;4.88;;;;;;;20.02;45.90;100059.53;4956591;28;20558;-88
2023/05/28 08:55:35;;;;;;;16.42;5.95;;;;;;;20.06;45.70;100061.66;4934550;28;20458;-88
2023/05/28 08:58:12;;;;;;;16.35;5.47;;;;;;;20.10;45.74;100052.19;4944659;28;20125;-88
2023/05/28 09:00:39;;;;;;;12.93;5.25;;;;;;;20.12;45.73;100063.63;4962559;28;20046;-88
2023/05/28 09:03:26;;;;;;;13.73;5.38;;;;;;;20.12;46.10;100051.97;4946361;28;20046;-88
2023/05/28 09:06:00;;;;;;;12.98;5.50;;;;;;;20.17;46.03;100050.38;4935305;28;20410;-88
2023/05/28 09:08:40;;;;;;;16.48;6.35;;;;;;;20.11;45.72;100043.06;4918378;28;20027;-90
2023/05/28 09:11:30;;;;;;;16.15;6.22;;;;;;;20.18;45.63;100045.81;4898020;28;20057;-88
2023/05/28 09:13:57;;;;;;;14.10;5.38;;;;;;;20.22;45.82;100044.41;4908985;28;20043;-88
2023/05/28 09:16:25;;;;;;;13.73;5.65;;;;;;;20.26;46.18;100042.16;4927993;28;20561;-87
2023/05/28 09:19:05;;;;;;;16.40;5.53;;;;;;;20.29;45.53;100039.91;4935997;28;20297;-90
2023/05/28 09:21:33;;;;;;;20.90;6.22;;;;;;;20.29;45.34;100036.38;4903814;28;20047;-88
2023/05/28 09:24:13;;;;;;;25.75;6.03;;;;;;;20.32;44.95;100044.91;4893569;28;20062;-87
2023/05/28 09:27:06;;;;;;;9.68;5.43;;;;;;;20.31;45.68;100037.84;4935445;28;20109;-88
2023/05/28 09:29:41;;;;;;;13.75;5.38;;;;;;;20.31;45.70;100028.94;4943106;28;20051;-87
2023/05/28 09:32:08;;;;;;;13.82;5.53;;;;;;;20.41;45.75;100034.00;4938585;28;20058;-88
2023/05/28 09:34:50;;;;;;;15.80;5.47;;;;;;;20.34;45.92;100031.22;4909402;28;20058;-88
2023/05/28 09:37:17;;;;;;;19.75;5.90;;;;;;;20.43;45.72;100031.91;4924588;28;20436;-88
2023/05/28 09:39:45;;;;;;;17.10;5.53;;;;;;;20.43;45.25;100023.81;4936091;28;20051;-89
2023/05/28 09:42:13;;;;;;;16.50;5.00;;;;;;;20.44;45.55;100028.22;4904683;28;20049;-89
2023/05/28 09:44:40;;;;;;;12.10;6.03;;;;;;;20.45;45.51;100017.19;4952410;28;20051;-88
2023/05/28 09:47:18;;;;;;;14.65;5.97;;;;;;;20.45;46.03;100025.28;4932370;28;20042;-89
2023/05/28 09:49:47;;;;;;;17.98;4.95;;;;;;;20.54;45.92;100021.47;4965068;28;20073;-87
2023/05/28 09:52:21;;;;;;;17.02;5.88;;;;;;;20.54;46.22;100021.47;4920783;28;20094;-88
2023/05/28 09:54:59;;;;;;;19.95;6.07;;;;;;;20.55;45.05;100022.28;4951092;28;20055;-89
2023/05/28 09:57:29;;;;;;;19.38;5.68;;;;;;;20.64;44.99;100031.91;4941466;28;20450;-89
2023/05/28 10:00:13;;;;;;;17.27;5.85;;;;;;;20.67;44.94;100023.44;4914826;28;20065;-89
2023/05/28 10:03:47;;;;;;;16.98;7.18;;;;;;;20.58;45.36;100019.19;4925255;28;20441;-88
2023/05/28 10:06:18;;;;;;;13.85;5.63;;;;;;;20.71;44.73;100026.56;4921405;28;20061;-88
2023/05/28 10:08:50;;;;;;;13.73;5.10;;;;;;;20.70;44.58;100009.53;4931903;28;20054;-89
2023/05/28 10:11:27;;;;;;;19.92;5.90;;;;;;;20.72;45.15;100030.94;4930425;28;20055;-89
2023/05/28 10:13:56;;;;;;;15.85;5.57;;;;;;;20.79;43.86;100018.31;4962659;28;20042;-88
2023/05/28 10:16:24;;;;;;;15.27;5.28;;;;;;;20.78;44.42;100011.25;4923649;28;20402;-87
2023/05/28 10:18:53;;;;;;;13.52;5.45;;;;;;;20.80;43.98;100015.41;4928885;28;20057;-88
2023/05/28 10:21:24;;;;;;;20.88;5.30;;;;;;;20.81;43.17;100013.53;4903603;28;20071;-88
2023/05/28 10:23:51;;;;;;;14.35;4.78;;;;;;;20.86;43.83;100012.94;4929222;28;20054;-87
2023/05/28 10:26:18;;;;;;;14.77;5.25;;;;;;;20.89;44.01;100007.16;4904691;28;20132;-87
2023/05/28 10:28:53;;;;;;;12.30;5.72;;;;;;;20.91;43.47;100011.31;4943401;28;20513;-87
2023/05/28 10:31:28;;;;;;;14.98;5.15;;;;;;;20.97;42.99;100013.25;4938009;28;20055;-88
2023/05/28 10:33:54;;;;;;;10.48;4.82;;;;;;;21.00;42.91;100007.44;4941703;28;20051;-88
2023/05/28 10:36:21;;;;;;;13.32;5.90;;;;;;;21.02;42.97;99996.44;4940059;28;20066;-88
2023/05/28 10:38:53;;;;;;;13.77;5.28;;;;;;;21.07;43.51;100003.94;4915758;28;20065;-89
2023/05/28 10:41:21;;;;;;;10.02;5.05;;;;;;;21.10;42.11;100007.06;4969533;28;20141;-88
2023/05/28 10:43:49;;;;;;;16.85;6.38;;;;;;;21.12;41.95;99998.78;4915959;28;20050;-88
2023/05/28 10:46:21;;;;;;;16.02;5.57;;;;;;;21.13;41.73;100008.53;4946075;28;20055;-88
2023/05/28 10:49:12;;;;;;;17.50;5.97;;;;;;;21.10;41.34;100007.06;4939575;28;20051;-87
2023/05/28 10:52:00;;;;;;;12.98;5.53;;;;;;;21.18;41.83;100006.91;4943566;28;20078;-88
2023/05/28 10:54:30;;;;;;;11.38;4.70;;;;;;;21.22;41.09;100012.75;4949005;28;20125;-89
2023/05/28 10:57:11;;;;;;;23.92;5.78;;;;;;;21.18;38.04;100003.38;4975325;28;20043;-87
2023/05/28 10:59:58;;;;;;;15.05;5.75;;;;;;;21.25;40.38;100005.06;4976717;28;20117;-89
2023/05/28 11:02:27;;;;;;;11.20;5.00;;;;;;;21.24;40.66;99994.44;4968684;28;20057;-89
2023/05/28 11:04:56;;;;;;;13.32;5.18;;;;;;;21.29;40.62;99997.38;4926667;28;20046;-89
2023/05/28 11:07:32;;;;;;;10.93;5.10;;;;;;;21.25;41.04;99988.88;4960851;28;20043;-89
2023/05/28 11:10:01;;;;;;;14.23;6.03;;;;;;;21.37;41.33;99993.66;4931459;28;20047;-89
2023/05/28 11:12:30;;;;;;;11.50;4.57;;;;;;;21.41;41.44;99994.97;4973356;28;20134;-89
2023/05/28 11:14:57;;;;;;;16.33;4.88;;;;;;;21.43;41.01;99998.31;4966150;28;20051;-90
2023/05/28 11:17:26;;;;;;;14.52;5.97;;;;;;;21.52;40.60;99996.25;4944050;28;20353;-90
2023/05/28 11:19:53;;;;;;;17.33;6.32;;;;;;;;;;4946014;28;20093;-90
2023/05/28 11:22:21;;;;;;;9.95;4.95;;;;;;;21.45;41.25;99991.66;4982171;28;20493;-90
2023/05/28 11:25:19;;;;;;;12.77;5.63;;;;;;;21.36;39.93;99989.31;4982665;28;20057;-89
2023/05/28 11:27:50;;;;;;;13.60;5.43;;;;;;;21.50;40.65;99999.19;4975606;28;20486;-89
2023/05/28 11:30:22;;;;;;;13.57;6.15;;;;;;;21.50;39.31;99984.81;4975018;28;20058;-89
2023/05/28 11:33:01;;;;;;;12.70;5.80;;;;;;;21.52;39.76;99980.88;4971482;28;20050;-88
2023/05/28 11:35:36;;;;;;;15.50;5.50;;;;;;;21.53;41.53;99981.72;4930385;28;20513;-89
2023/05/28 11:38:04;;;;;;;12.95;5.80;;;;;;;21.56;40.94;99986.72;4973611;28;20054;-87
2023/05/28 11:40:37;;;;;;;12.75;5.88;;;;;;;21.55;40.84;99990.44;4940222;28;20045;-87